sensor_id;sensor_type;location;lat;lon;timestamp;P1;durP1;ratioP1;P2;durP2;ratioP2
17763;SDS011;22245;52.832;13.816;2023-03-12T00:01:54;7.47;;;1.93;;
17763;SDS011;22245;52.832;13.816;2023-03-12T00:05:18;4.70;;;1.70;;
17763;SDS011;22245;52.832;13.816;2023-03-12T00:08:39;4.00;;;1.70;;
17763;SDS011;22245;52.832;13.816;2023-03-12T00:12:01;9.43;;;2.83;;
17763;SDS011;22245;52.832;13.816;2023-03-12T00:15:23;5.93;;;2.33;;
17763;SDS011;22245;52.832;13.816;2023-03-12T00:18:46;5.93;;;1.63;;
17763;SDS011;22245;52.832;13.816;2023-03-12T00:22:10;6.30;;;1.70;;
17763;SDS011;22245;52.832;13.816;2023-03-12T00:25:33;6.00;;;2.00;;
17763;SDS011;22245;52.832;13.816;2023-03-12T00:28:54;3.30;;;1.63;;
17763;SDS011;22245;52.832;13.816;2023-03-12T00:32:16;3.10;;;1.53;;
17763;SDS011;22245;52.832;13.816;2023-03-12T00:35:38;3.00;;;1.37;;
17763;SDS011;22245;52.832;13.816;2023-03-12T00:39:01;6.10;;;1.70;;
17763;SDS011;22245;52.832;13.816;2023-03-12T00:42:23;4.33;;;2.00;;
17763;SDS011;22245;52.832;13.816;2023-03-12T00:45:44;7.00;;;1.90;;
17763;SDS011;22245;52.832;13.816;2023-03-12T00:49:06;5.10;;;1.77;;
17763;SDS011;22245;52.832;13.816;2023-03-12T00:52:28;4.93;;;1.60;;
17763;SDS011;22245;52.832;13.816;2023-03-12T00:55:52;3.40;;;1.50;;
17763;SDS011;22245;52.832;13.816;2023-03-12T00:59:13;6.67;;;1.67;;
17763;SDS011;22245;52.832;13.816;2023-03-12T01:02:36;4.93;;;2.00;;
17763;SDS011;22245;52.832;13.816;2023-03-12T01:05:58;5.43;;;1.60;;
17763;SDS011;22245;52.832;13.816;2023-03-12T01:09:20;5.40;;;1.87;;
17763;SDS011;22245;52.832;13.816;2023-03-12T01:12:45;4.33;;;1.50;;
17763;SDS011;22245;52.832;13.816;2023-03-12T01:17:54;8.20;;;2.00;;
17763;SDS011;22245;52.832;13.816;2023-03-12T01:21:16;4.40;;;1.60;;
17763;SDS011;22245;52.832;13.816;2023-03-12T01:24:38;3.30;;;1.80;;
17763;SDS011;22245;52.832;13.816;2023-03-12T01:27:59;4.23;;;1.70;;
17763;SDS011;22245;52.832;13.816;2023-03-12T01:31:21;3.57;;;1.70;;
17763;SDS011;22245;52.832;13.816;2023-03-12T01:34:44;5.13;;;1.93;;
17763;SDS011;22245;52.832;13.816;2023-03-12T01:38:06;5.03;;;1.70;;
17763;SDS011;22245;52.832;13.816;2023-03-12T01:41:30;5.03;;;1.50;;
17763;SDS011;22245;52.832;13.816;2023-03-12T01:44:53;5.30;;;2.50;;
17763;SDS011;22245;52.832;13.816;2023-03-12T01:48:17;3.67;;;1.70;;
17763;SDS011;22245;52.832;13.816;2023-03-12T01:51:43;5.97;;;1.70;;
17763;SDS011;22245;52.832;13.816;2023-03-12T01:55:07;4.97;;;1.60;;
17763;SDS011;22245;52.832;13.816;2023-03-12T01:58:36;5.17;;;1.83;;
17763;SDS011;22245;52.832;13.816;2023-03-12T02:02:01;4.60;;;2.13;;
17763;SDS011;22245;52.832;13.816;2023-03-12T02:05:24;5.27;;;1.93;;
17763;SDS011;22245;52.832;13.816;2023-03-12T02:08:52;4.40;;;1.87;;
17763;SDS011;22245;52.832;13.816;2023-03-12T02:12:14;7.70;;;2.00;;
17763;SDS011;22245;52.832;13.816;2023-03-12T02:15:38;3.33;;;1.70;;
17763;SDS011;22245;52.832;13.816;2023-03-12T02:19:00;5.47;;;1.97;;
17763;SDS011;22245;52.832;13.816;2023-03-12T02:22:25;5.30;;;2.33;;
17763;SDS011;22245;52.832;13.816;2023-03-12T02:25:49;9.10;;;2.20;;
17763;SDS011;22245;52.832;13.816;2023-03-12T02:29:12;5.77;;;2.77;;
17763;SDS011;22245;52.832;13.816;2023-03-12T02:32:36;10.23;;;2.33;;
17763;SDS011;22245;52.832;13.816;2023-03-12T02:35:59;3.87;;;1.90;;
17763;SDS011;22245;52.832;13.816;2023-03-12T02:39:21;5.10;;;2.30;;
17763;SDS011;22245;52.832;13.816;2023-03-12T02:42:45;6.13;;;2.40;;
17763;SDS011;22245;52.832;13.816;2023-03-12T02:46:07;3.70;;;1.73;;
17763;SDS011;22245;52.832;13.816;2023-03-12T02:49:30;6.20;;;2.13;;
17763;SDS011;22245;52.832;13.816;2023-03-12T02:52:53;3.73;;;2.00;;
17763;SDS011;22245;52.832;13.816;2023-03-12T02:56:15;5.10;;;1.90;;
17763;SDS011;22245;52.832;13.816;2023-03-12T02:59:38;5.30;;;2.10;;
17763;SDS011;22245;52.832;13.816;2023-03-12T03:03:01;3.00;;;1.90;;
17763;SDS011;22245;52.832;13.816;2023-03-12T03:06:23;4.70;;;1.70;;
17763;SDS011;22245;52.832;13.816;2023-03-12T03:09:46;3.90;;;1.93;;
17763;SDS011;22245;52.832;13.816;2023-03-12T03:13:08;4.67;;;2.10;;
17763;SDS011;22245;52.832;13.816;2023-03-12T03:16:32;6.93;;;2.03;;
17763;SDS011;22245;52.832;13.816;2023-03-12T03:19:54;4.13;;;2.00;;
17763;SDS011;22245;52.832;13.816;2023-03-12T03:23:16;7.67;;;1.70;;
17763;SDS011;22245;52.832;13.816;2023-03-12T03:26:37;6.10;;;2.00;;
17763;SDS011;22245;52.832;13.816;2023-03-12T03:29:59;4.83;;;2.40;;
17763;SDS011;22245;52.832;13.816;2023-03-12T03:33:25;2.77;;;1.70;;
17763;SDS011;22245;52.832;13.816;2023-03-12T03:36:47;5.87;;;2.20;;
17763;SDS011;22245;52.832;13.816;2023-03-12T03:40:10;3.50;;;1.80;;
17763;SDS011;22245;52.832;13.816;2023-03-12T03:43:32;3.63;;;2.13;;
17763;SDS011;22245;52.832;13.816;2023-03-12T03:46:54;6.77;;;2.20;;
17763;SDS011;22245;52.832;13.816;2023-03-12T03:50:18;3.53;;;2.00;;
17763;SDS011;22245;52.832;13.816;2023-03-12T03:53:40;6.70;;;2.33;;
17763;SDS011;22245;52.832;13.816;2023-03-12T03:57:02;6.33;;;2.17;;
17763;SDS011;22245;52.832;13.816;2023-03-12T04:00:23;4.60;;;2.23;;
17763;SDS011;22245;52.832;13.816;2023-03-12T04:03:45;5.30;;;2.37;;
17763;SDS011;22245;52.832;13.816;2023-03-12T04:07:09;3.17;;;2.00;;
17763;SDS011;22245;52.832;13.816;2023-03-12T04:10:31;6.97;;;2.40;;
17763;SDS011;22245;52.832;13.816;2023-03-12T04:13:53;5.03;;;2.23;;
17763;SDS011;22245;52.832;13.816;2023-03-12T04:17:17;3.87;;;2.10;;
17763;SDS011;22245;52.832;13.816;2023-03-12T04:20:40;3.93;;;2.10;;
17763;SDS011;22245;52.832;13.816;2023-03-12T04:24:04;6.40;;;2.53;;
17763;SDS011;22245;52.832;13.816;2023-03-12T04:27:27;6.47;;;2.33;;
17763;SDS011;22245;52.832;13.816;2023-03-12T04:30:53;6.90;;;2.17;;
17763;SDS011;22245;52.832;13.816;2023-03-12T04:34:15;5.03;;;2.17;;
17763;SDS011;22245;52.832;13.816;2023-03-12T04:37:39;6.63;;;2.20;;
17763;SDS011;22245;52.832;13.816;2023-03-12T04:41:04;4.83;;;2.00;;
17763;SDS011;22245;52.832;13.816;2023-03-12T04:44:30;4.70;;;2.47;;
17763;SDS011;22245;52.832;13.816;2023-03-12T04:47:52;6.50;;;2.60;;
17763;SDS011;22245;52.832;13.816;2023-03-12T04:51:14;6.47;;;2.07;;
17763;SDS011;22245;52.832;13.816;2023-03-12T04:54:36;4.17;;;2.23;;
17763;SDS011;22245;52.832;13.816;2023-03-12T04:57:59;4.73;;;2.17;;
17763;SDS011;22245;52.832;13.816;2023-03-12T05:01:22;5.60;;;2.47;;
17763;SDS011;22245;52.832;13.816;2023-03-12T05:04:46;5.33;;;2.60;;
17763;SDS011;22245;52.832;13.816;2023-03-12T05:08:07;7.30;;;2.47;;
17763;SDS011;22245;52.832;13.816;2023-03-12T05:11:30;8.93;;;3.00;;
17763;SDS011;22245;52.832;13.816;2023-03-12T05:14:53;6.23;;;2.83;;
17763;SDS011;22245;52.832;13.816;2023-03-12T05:18:15;5.30;;;2.73;;
17763;SDS011;22245;52.832;13.816;2023-03-12T05:21:39;5.60;;;2.97;;
17763;SDS011;22245;52.832;13.816;2023-03-12T05:25:03;7.13;;;2.60;;
17763;SDS011;22245;52.832;13.816;2023-03-12T05:28:26;6.83;;;3.00;;
17763;SDS011;22245;52.832;13.816;2023-03-12T05:31:54;4.70;;;2.70;;
17763;SDS011;22245;52.832;13.816;2023-03-12T05:35:16;5.13;;;2.47;;
17763;SDS011;22245;52.832;13.816;2023-03-12T05:38:38;8.13;;;3.10;;
17763;SDS011;22245;52.832;13.816;2023-03-12T05:42:02;5.57;;;3.07;;
17763;SDS011;22245;52.832;13.816;2023-03-12T05:45:25;6.40;;;2.90;;
17763;SDS011;22245;52.832;13.816;2023-03-12T05:48:50;5.40;;;3.00;;
17763;SDS011;22245;52.832;13.816;2023-03-12T05:52:13;5.87;;;3.13;;
17763;SDS011;22245;52.832;13.816;2023-03-12T05:55:35;7.10;;;3.77;;
17763;SDS011;22245;52.832;13.816;2023-03-12T05:58:58;9.80;;;3.47;;
17763;SDS011;22245;52.832;13.816;2023-03-12T06:02:21;8.67;;;3.37;;
17763;SDS011;22245;52.832;13.816;2023-03-12T06:05:44;6.40;;;3.20;;
17763;SDS011;22245;52.832;13.816;2023-03-12T06:09:07;8.77;;;4.00;;
17763;SDS011;22245;52.832;13.816;2023-03-12T06:12:28;7.93;;;3.50;;
17763;SDS011;22245;52.832;13.816;2023-03-12T06:15:50;9.23;;;4.03;;
17763;SDS011;22245;52.832;13.816;2023-03-12T06:19:12;13.40;;;4.83;;
17763;SDS011;22245;52.832;13.816;2023-03-12T06:22:38;16.77;;;5.33;;
17763;SDS011;22245;52.832;13.816;2023-03-12T06:25:59;11.33;;;4.57;;
17763;SDS011;22245;52.832;13.816;2023-03-12T06:29:21;9.90;;;5.07;;
17763;SDS011;22245;52.832;13.816;2023-03-12T06:32:43;11.23;;;4.23;;
17763;SDS011;22245;52.832;13.816;2023-03-12T06:36:06;6.93;;;3.60;;
17763;SDS011;22245;52.832;13.816;2023-03-12T06:39:29;9.63;;;3.97;;
17763;SDS011;22245;52.832;13.816;2023-03-12T06:42:51;9.73;;;4.00;;
17763;SDS011;22245;52.832;13.816;2023-03-12T06:46:14;6.97;;;3.40;;
17763;SDS011;22245;52.832;13.816;2023-03-12T06:49:37;8.83;;;3.87;;
17763;SDS011;22245;52.832;13.816;2023-03-12T06:52:58;8.67;;;4.13;;
17763;SDS011;22245;52.832;13.816;2023-03-12T06:56:22;6.30;;;3.30;;
17763;SDS011;22245;52.832;13.816;2023-03-12T06:59:43;8.20;;;4.90;;
17763;SDS011;22245;52.832;13.816;2023-03-12T07:03:09;11.93;;;4.07;;
17763;SDS011;22245;52.832;13.816;2023-03-12T07:06:31;5.87;;;3.67;;
17763;SDS011;22245;52.832;13.816;2023-03-12T07:09:52;8.00;;;4.40;;
17763;SDS011;22245;52.832;13.816;2023-03-12T07:13:16;8.57;;;4.00;;
17763;SDS011;22245;52.832;13.816;2023-03-12T07:16:37;7.47;;;4.07;;
17763;SDS011;22245;52.832;13.816;2023-03-12T07:19:59;6.53;;;3.87;;
17763;SDS011;22245;52.832;13.816;2023-03-12T07:23:21;8.10;;;3.30;;
17763;SDS011;22245;52.832;13.816;2023-03-12T07:26:43;8.53;;;3.70;;
17763;SDS011;22245;52.832;13.816;2023-03-12T07:30:07;9.03;;;3.73;;
17763;SDS011;22245;52.832;13.816;2023-03-12T07:33:30;9.27;;;3.40;;
17763;SDS011;22245;52.832;13.816;2023-03-12T07:36:52;7.30;;;4.03;;
17763;SDS011;22245;52.832;13.816;2023-03-12T07:40:15;8.77;;;3.40;;
17763;SDS011;22245;52.832;13.816;2023-03-12T07:43:37;10.07;;;4.20;;
17763;SDS011;22245;52.832;13.816;2023-03-12T07:47:00;8.80;;;3.50;;
17763;SDS011;22245;52.832;13.816;2023-03-12T07:50:41;7.20;;;2.90;;
17763;SDS011;22245;52.832;13.816;2023-03-12T07:54:03;5.03;;;2.93;;
17763;SDS011;22245;52.832;13.816;2023-03-12T07:57:25;5.83;;;2.97;;
17763;SDS011;22245;52.832;13.816;2023-03-12T08:00:47;5.20;;;2.70;;
17763;SDS011;22245;52.832;13.816;2023-03-12T08:04:10;6.00;;;3.80;;
17763;SDS011;22245;52.832;13.816;2023-03-12T08:07:32;7.93;;;2.90;;
17763;SDS011;22245;52.832;13.816;2023-03-12T08:10:54;6.33;;;2.70;;
17763;SDS011;22245;52.832;13.816;2023-03-12T08:14:17;5.87;;;2.20;;
17763;SDS011;22245;52.832;13.816;2023-03-12T08:17:38;6.67;;;2.43;;
17763;SDS011;22245;52.832;13.816;2023-03-12T08:21:02;6.27;;;2.50;;
17763;SDS011;22245;52.832;13.816;2023-03-12T08:24:24;7.50;;;2.03;;
17763;SDS011;22245;52.832;13.816;2023-03-12T08:27:45;5.83;;;2.40;;
17763;SDS011;22245;52.832;13.816;2023-03-12T08:31:07;6.50;;;2.03;;
17763;SDS011;22245;52.832;13.816;2023-03-12T08:34:29;5.90;;;2.00;;
17763;SDS011;22245;52.832;13.816;2023-03-12T08:37:53;7.60;;;1.80;;
17763;SDS011;22245;52.832;13.816;2023-03-12T08:41:16;7.57;;;2.50;;
17763;SDS011;22245;52.832;13.816;2023-03-12T08:44:38;5.70;;;1.90;;
17763;SDS011;22245;52.832;13.816;2023-03-12T08:48:00;7.10;;;2.23;;
17763;SDS011;22245;52.832;13.816;2023-03-12T08:51:22;8.40;;;1.70;;
17763;SDS011;22245;52.832;13.816;2023-03-12T08:54:45;5.73;;;1.60;;
17763;SDS011;22245;52.832;13.816;2023-03-12T08:58:06;4.60;;;2.23;;
17763;SDS011;22245;52.832;13.816;2023-03-12T09:01:28;3.97;;;2.00;;
17763;SDS011;22245;52.832;13.816;2023-03-12T09:04:50;3.83;;;1.77;;
17763;SDS011;22245;52.832;13.816;2023-03-12T09:08:12;4.93;;;1.90;;
17763;SDS011;22245;52.832;13.816;2023-03-12T09:11:36;4.93;;;1.20;;
17763;SDS011;22245;52.832;13.816;2023-03-12T09:14:59;4.37;;;1.20;;
17763;SDS011;22245;52.832;13.816;2023-03-12T09:18:23;3.87;;;1.77;;
17763;SDS011;22245;52.832;13.816;2023-03-12T09:21:45;4.17;;;1.83;;
17763;SDS011;22245;52.832;13.816;2023-03-12T09:25:07;2.67;;;1.20;;
17763;SDS011;22245;52.832;13.816;2023-03-12T09:28:32;2.53;;;1.10;;
17763;SDS011;22245;52.832;13.816;2023-03-12T09:31:54;5.10;;;1.37;;
17763;SDS011;22245;52.832;13.816;2023-03-12T09:35:16;2.73;;;1.00;;
17763;SDS011;22245;52.832;13.816;2023-03-12T09:38:38;4.90;;;1.40;;
17763;SDS011;22245;52.832;13.816;2023-03-12T09:41:59;5.30;;;1.70;;
17763;SDS011;22245;52.832;13.816;2023-03-12T09:45:26;8.23;;;1.50;;
17763;SDS011;22245;52.832;13.816;2023-03-12T09:48:51;8.37;;;1.57;;
17763;SDS011;22245;52.832;13.816;2023-03-12T09:52:17;5.50;;;1.33;;
17763;SDS011;22245;52.832;13.816;2023-03-12T09:55:46;4.93;;;1.57;;
17763;SDS011;22245;52.832;13.816;2023-03-12T09:59:10;4.53;;;1.67;;
17763;SDS011;22245;52.832;13.816;2023-03-12T10:06:34;5.80;;;1.07;;
17763;SDS011;22245;52.832;13.816;2023-03-12T10:10:09;2.37;;;0.90;;
17763;SDS011;22245;52.832;13.816;2023-03-12T10:13:46;5.40;;;1.10;;
17763;SDS011;22245;52.832;13.816;2023-03-12T10:21:07;4.13;;;1.13;;
17763;SDS011;22245;52.832;13.816;2023-03-12T10:24:42;6.00;;;1.07;;
17763;SDS011;22245;52.832;13.816;2023-03-12T10:28:14;4.50;;;1.20;;
17763;SDS011;22245;52.832;13.816;2023-03-12T10:31:41;5.23;;;1.40;;
17763;SDS011;22245;52.832;13.816;2023-03-12T10:35:12;3.57;;;1.00;;
17763;SDS011;22245;52.832;13.816;2023-03-12T10:38:37;3.63;;;1.13;;
17763;SDS011;22245;52.832;13.816;2023-03-12T10:42:00;2.93;;;1.30;;
17763;SDS011;22245;52.832;13.816;2023-03-12T10:45:24;3.97;;;1.00;;
17763;SDS011;22245;52.832;13.816;2023-03-12T10:49:01;3.37;;;1.43;;
17763;SDS011;22245;52.832;13.816;2023-03-12T10:52:44;3.77;;;1.30;;
17763;SDS011;22245;52.832;13.816;2023-03-12T10:56:08;3.83;;;1.63;;
17763;SDS011;22245;52.832;13.816;2023-03-12T10:59:32;4.67;;;1.70;;
17763;SDS011;22245;52.832;13.816;2023-03-12T11:02:57;3.93;;;1.50;;
17763;SDS011;22245;52.832;13.816;2023-03-12T11:06:20;3.67;;;2.37;;
17763;SDS011;22245;52.832;13.816;2023-03-12T11:09:43;5.20;;;1.60;;
17763;SDS011;22245;52.832;13.816;2023-03-12T11:13:19;8.57;;;1.80;;
17763;SDS011;22245;52.832;13.816;2023-03-12T11:16:44;5.30;;;2.13;;
17763;SDS011;22245;52.832;13.816;2023-03-12T11:20:16;6.43;;;1.60;;
17763;SDS011;22245;52.832;13.816;2023-03-12T11:23:53;4.63;;;1.97;;
17763;SDS011;22245;52.832;13.816;2023-03-12T11:27:29;5.13;;;1.70;;
17763;SDS011;22245;52.832;13.816;2023-03-12T11:30:59;3.40;;;1.67;;
17763;SDS011;22245;52.832;13.816;2023-03-12T11:34:25;2.93;;;1.60;;
17763;SDS011;22245;52.832;13.816;2023-03-12T11:37:52;4.67;;;1.60;;
17763;SDS011;22245;52.832;13.816;2023-03-12T11:41:23;5.27;;;1.83;;
17763;SDS011;22245;52.832;13.816;2023-03-12T11:44:58;4.40;;;1.90;;
17763;SDS011;22245;52.832;13.816;2023-03-12T11:48:27;6.30;;;1.87;;
17763;SDS011;22245;52.832;13.816;2023-03-12T11:52:03;3.87;;;1.80;;
17763;SDS011;22245;52.832;13.816;2023-03-12T11:55:36;4.20;;;1.73;;
17763;SDS011;22245;52.832;13.816;2023-03-12T11:59:13;10.33;;;3.90;;
17763;SDS011;22245;52.832;13.816;2023-03-12T12:02:57;3.63;;;1.70;;
17763;SDS011;22245;52.832;13.816;2023-03-12T12:06:45;8.77;;;1.60;;
17763;SDS011;22245;52.832;13.816;2023-03-12T12:10:22;3.93;;;1.80;;
17763;SDS011;22245;52.832;13.816;2023-03-12T12:13:51;3.77;;;2.03;;
17763;SDS011;22245;52.832;13.816;2023-03-12T12:17:30;7.10;;;2.40;;
17763;SDS011;22245;52.832;13.816;2023-03-12T12:21:21;4.20;;;1.90;;
17763;SDS011;22245;52.832;13.816;2023-03-12T12:25:15;6.27;;;2.23;;
17763;SDS011;22245;52.832;13.816;2023-03-12T12:29:01;5.00;;;2.03;;
17763;SDS011;22245;52.832;13.816;2023-03-12T12:32:35;4.20;;;1.60;;
17763;SDS011;22245;52.832;13.816;2023-03-12T12:36:08;4.60;;;1.50;;
17763;SDS011;22245;52.832;13.816;2023-03-12T12:39:31;5.93;;;1.83;;
17763;SDS011;22245;52.832;13.816;2023-03-12T12:43:05;3.70;;;1.93;;
17763;SDS011;22245;52.832;13.816;2023-03-12T12:46:38;6.87;;;1.80;;
17763;SDS011;22245;52.832;13.816;2023-03-12T12:50:03;3.10;;;1.50;;
17763;SDS011;22245;52.832;13.816;2023-03-12T12:53:25;8.30;;;1.67;;
17763;SDS011;22245;52.832;13.816;2023-03-12T12:56:50;1.83;;;1.20;;
17763;SDS011;22245;52.832;13.816;2023-03-12T13:00:26;3.77;;;1.57;;
17763;SDS011;22245;52.832;13.816;2023-03-12T13:04:04;3.97;;;1.30;;
17763;SDS011;22245;52.832;13.816;2023-03-12T13:07:31;5.33;;;1.30;;
17763;SDS011;22245;52.832;13.816;2023-03-12T13:10:57;3.13;;;1.47;;
17763;SDS011;22245;52.832;13.816;2023-03-12T13:14:38;4.67;;;1.27;;
17763;SDS011;22245;52.832;13.816;2023-03-12T13:18:08;5.57;;;1.73;;
17763;SDS011;22245;52.832;13.816;2023-03-12T13:21:43;6.77;;;1.87;;
17763;SDS011;22245;52.832;13.816;2023-03-12T13:25:24;2.47;;;1.40;;
17763;SDS011;22245;52.832;13.816;2023-03-12T13:28:57;5.63;;;1.50;;
17763;SDS011;22245;52.832;13.816;2023-03-12T13:32:36;8.00;;;1.40;;
17763;SDS011;22245;52.832;13.816;2023-03-12T13:36:22;5.07;;;1.60;;
17763;SDS011;22245;52.832;13.816;2023-03-12T13:39:46;2.40;;;1.33;;
17763;SDS011;22245;52.832;13.816;2023-03-12T13:43:09;4.20;;;1.60;;
17763;SDS011;22245;52.832;13.816;2023-03-12T13:46:34;2.67;;;1.30;;
17763;SDS011;22245;52.832;13.816;2023-03-12T13:50:00;4.77;;;1.90;;
17763;SDS011;22245;52.832;13.816;2023-03-12T13:53:30;5.67;;;2.80;;
17763;SDS011;22245;52.832;13.816;2023-03-12T13:56:56;4.53;;;1.90;;
17763;SDS011;22245;52.832;13.816;2023-03-12T14:00:24;3.37;;;1.87;;
17763;SDS011;22245;52.832;13.816;2023-03-12T14:03:48;3.80;;;1.83;;
17763;SDS011;22245;52.832;13.816;2023-03-12T14:07:24;6.17;;;2.73;;
17763;SDS011;22245;52.832;13.816;2023-03-12T14:11:08;5.63;;;2.70;;
17763;SDS011;22245;52.832;13.816;2023-03-12T14:14:59;10.50;;;3.17;;
17763;SDS011;22245;52.832;13.816;2023-03-12T14:18:28;3.40;;;2.03;;
17763;SDS011;22245;52.832;13.816;2023-03-12T14:21:53;4.23;;;2.00;;
17763;SDS011;22245;52.832;13.816;2023-03-12T14:25:21;4.67;;;2.33;;
17763;SDS011;22245;52.832;13.816;2023-03-12T14:28:53;4.67;;;2.30;;
17763;SDS011;22245;52.832;13.816;2023-03-12T14:32:20;5.90;;;2.70;;
17763;SDS011;22245;52.832;13.816;2023-03-12T14:35:45;5.50;;;2.20;;
17763;SDS011;22245;52.832;13.816;2023-03-12T14:39:16;3.80;;;2.00;;
17763;SDS011;22245;52.832;13.816;2023-03-12T14:42:45;3.00;;;2.30;;
17763;SDS011;22245;52.832;13.816;2023-03-12T14:46:13;1.27;;;0.70;;
17763;SDS011;22245;52.832;13.816;2023-03-12T14:49:38;2.43;;;0.83;;
17763;SDS011;22245;52.832;13.816;2023-03-12T14:53:09;3.20;;;1.00;;
17763;SDS011;22245;52.832;13.816;2023-03-12T14:56:33;1.60;;;1.03;;
17763;SDS011;22245;52.832;13.816;2023-03-12T14:59:55;6.57;;;1.80;;
17763;SDS011;22245;52.832;13.816;2023-03-12T15:03:19;2.00;;;1.30;;
17763;SDS011;22245;52.832;13.816;2023-03-12T15:06:42;2.77;;;1.50;;
17763;SDS011;22245;52.832;13.816;2023-03-12T15:10:14;2.37;;;1.20;;
17763;SDS011;22245;52.832;13.816;2023-03-12T15:13:40;4.83;;;1.20;;
17763;SDS011;22245;52.832;13.816;2023-03-12T15:17:02;2.30;;;1.20;;
17763;SDS011;22245;52.832;13.816;2023-03-12T15:20:27;6.60;;;1.83;;
17763;SDS011;22245;52.832;13.816;2023-03-12T15:23:50;2.10;;;1.33;;
17763;SDS011;22245;52.832;13.816;2023-03-12T15:27:20;2.17;;;1.40;;
17763;SDS011;22245;52.832;13.816;2023-03-12T15:31:05;3.83;;;1.60;;
17763;SDS011;22245;52.832;13.816;2023-03-12T15:34:31;3.30;;;1.70;;
17763;SDS011;22245;52.832;13.816;2023-03-12T15:37:56;3.83;;;1.80;;
17763;SDS011;22245;52.832;13.816;2023-03-12T15:41:19;3.73;;;1.80;;
17763;SDS011;22245;52.832;13.816;2023-03-12T15:44:43;2.97;;;1.80;;
17763;SDS011;22245;52.832;13.816;2023-03-12T15:48:13;3.10;;;1.90;;
17763;SDS011;22245;52.832;13.816;2023-03-12T15:51:56;3.97;;;1.97;;
17763;SDS011;22245;52.832;13.816;2023-03-12T15:55:22;3.90;;;2.43;;
17763;SDS011;22245;52.832;13.816;2023-03-12T15:58:46;4.30;;;2.10;;
17763;SDS011;22245;52.832;13.816;2023-03-12T16:02:33;3.80;;;2.50;;
17763;SDS011;22245;52.832;13.816;2023-03-12T16:05:56;3.83;;;2.40;;
17763;SDS011;22245;52.832;13.816;2023-03-12T16:09:19;4.53;;;2.57;;
17763;SDS011;22245;52.832;13.816;2023-03-12T16:12:45;3.80;;;2.23;;
17763;SDS011;22245;52.832;13.816;2023-03-12T16:16:09;3.97;;;2.17;;
17763;SDS011;22245;52.832;13.816;2023-03-12T16:19:33;4.83;;;2.03;;
17763;SDS011;22245;52.832;13.816;2023-03-12T16:22:55;3.77;;;1.67;;
17763;SDS011;22245;52.832;13.816;2023-03-12T16:26:17;2.57;;;1.33;;
17763;SDS011;22245;52.832;13.816;2023-03-12T16:29:40;4.00;;;1.60;;
17763;SDS011;22245;52.832;13.816;2023-03-12T16:33:03;5.00;;;1.63;;
17763;SDS011;22245;52.832;13.816;2023-03-12T16:36:28;2.90;;;1.40;;
17763;SDS011;22245;52.832;13.816;2023-03-12T16:39:50;3.60;;;1.50;;
17763;SDS011;22245;52.832;13.816;2023-03-12T16:43:13;2.40;;;1.30;;
17763;SDS011;22245;52.832;13.816;2023-03-12T16:46:38;3.10;;;1.63;;
17763;SDS011;22245;52.832;13.816;2023-03-12T16:50:00;3.83;;;1.83;;
17763;SDS011;22245;52.832;13.816;2023-03-12T16:53:23;3.20;;;1.60;;
17763;SDS011;22245;52.832;13.816;2023-03-12T16:56:46;2.77;;;1.47;;
17763;SDS011;22245;52.832;13.816;2023-03-12T17:00:11;3.87;;;1.53;;
17763;SDS011;22245;52.832;13.816;2023-03-12T17:03:37;6.00;;;1.70;;
17763;SDS011;22245;52.832;13.816;2023-03-12T17:07:02;3.93;;;1.60;;
17763;SDS011;22245;52.832;13.816;2023-03-12T17:10:24;4.30;;;1.47;;
17763;SDS011;22245;52.832;13.816;2023-03-12T17:13:47;3.63;;;1.90;;
17763;SDS011;22245;52.832;13.816;2023-03-12T17:17:12;4.00;;;1.77;;
17763;SDS011;22245;52.832;13.816;2023-03-12T17:20:35;3.40;;;1.90;;
17763;SDS011;22245;52.832;13.816;2023-03-12T17:23:59;2.73;;;1.50;;
17763;SDS011;22245;52.832;13.816;2023-03-12T17:27:21;3.43;;;1.50;;
17763;SDS011;22245;52.832;13.816;2023-03-12T17:30:43;4.13;;;2.60;;
17763;SDS011;22245;52.832;13.816;2023-03-12T17:34:06;6.80;;;3.70;;
17763;SDS011;22245;52.832;13.816;2023-03-12T17:37:29;5.50;;;3.23;;
17763;SDS011;22245;52.832;13.816;2023-03-12T17:40:51;5.80;;;3.40;;
17763;SDS011;22245;52.832;13.816;2023-03-12T17:44:13;6.43;;;3.40;;
17763;SDS011;22245;52.832;13.816;2023-03-12T17:47:35;6.00;;;2.67;;
17763;SDS011;22245;52.832;13.816;2023-03-12T17:50:57;4.67;;;2.83;;
17763;SDS011;22245;52.832;13.816;2023-03-12T17:54:20;4.17;;;2.53;;
17763;SDS011;22245;52.832;13.816;2023-03-12T17:57:41;5.70;;;2.53;;
17763;SDS011;22245;52.832;13.816;2023-03-12T18:01:03;4.17;;;2.30;;
17763;SDS011;22245;52.832;13.816;2023-03-12T18:04:25;4.63;;;2.80;;
17763;SDS011;22245;52.832;13.816;2023-03-12T18:07:47;4.77;;;3.17;;
17763;SDS011;22245;52.832;13.816;2023-03-12T18:11:11;7.40;;;3.73;;
17763;SDS011;22245;52.832;13.816;2023-03-12T18:14:33;6.70;;;3.20;;
17763;SDS011;22245;52.832;13.816;2023-03-12T18:17:55;6.90;;;3.53;;
17763;SDS011;22245;52.832;13.816;2023-03-12T18:21:18;10.23;;;3.87;;
17763;SDS011;22245;52.832;13.816;2023-03-12T18:24:40;8.70;;;4.40;;
17763;SDS011;22245;52.832;13.816;2023-03-12T18:28:03;9.20;;;4.23;;
17763;SDS011;22245;52.832;13.816;2023-03-12T18:31:25;6.60;;;3.97;;
17763;SDS011;22245;52.832;13.816;2023-03-12T18:34:47;6.80;;;3.67;;
17763;SDS011;22245;52.832;13.816;2023-03-12T18:38:09;7.17;;;4.40;;
17763;SDS011;22245;52.832;13.816;2023-03-12T18:41:31;12.23;;;4.40;;
17763;SDS011;22245;52.832;13.816;2023-03-12T18:44:54;9.20;;;3.40;;
17763;SDS011;22245;52.832;13.816;2023-03-12T18:48:16;6.40;;;3.53;;
17763;SDS011;22245;52.832;13.816;2023-03-12T18:51:37;5.83;;;3.93;;
17763;SDS011;22245;52.832;13.816;2023-03-12T18:54:59;7.63;;;3.57;;
17763;SDS011;22245;52.832;13.816;2023-03-12T18:58:21;8.90;;;4.43;;
17763;SDS011;22245;52.832;13.816;2023-03-12T19:01:45;7.70;;;3.73;;
17763;SDS011;22245;52.832;13.816;2023-03-12T19:05:08;9.20;;;4.30;;
17763;SDS011;22245;52.832;13.816;2023-03-12T19:08:30;6.47;;;4.17;;
17763;SDS011;22245;52.832;13.816;2023-03-12T19:11:52;10.27;;;6.00;;
17763;SDS011;22245;52.832;13.816;2023-03-12T19:15:14;7.73;;;5.13;;
17763;SDS011;22245;52.832;13.816;2023-03-12T19:18:37;6.77;;;4.60;;
17763;SDS011;22245;52.832;13.816;2023-03-12T19:22:00;7.37;;;4.03;;
17763;SDS011;22245;52.832;13.816;2023-03-12T19:25:22;8.00;;;4.13;;
17763;SDS011;22245;52.832;13.816;2023-03-12T19:28:44;7.80;;;4.23;;
17763;SDS011;22245;52.832;13.816;2023-03-12T19:32:06;11.63;;;4.63;;
17763;SDS011;22245;52.832;13.816;2023-03-12T19:35:29;7.77;;;4.33;;
17763;SDS011;22245;52.832;13.816;2023-03-12T19:38:51;6.73;;;4.43;;
17763;SDS011;22245;52.832;13.816;2023-03-12T19:42:13;6.77;;;3.87;;
17763;SDS011;22245;52.832;13.816;2023-03-12T19:45:35;7.60;;;4.03;;
17763;SDS011;22245;52.832;13.816;2023-03-12T19:48:57;6.73;;;4.20;;
17763;SDS011;22245;52.832;13.816;2023-03-12T19:52:20;8.10;;;4.33;;
17763;SDS011;22245;52.832;13.816;2023-03-12T19:55:44;5.93;;;4.07;;
17763;SDS011;22245;52.832;13.816;2023-03-12T19:59:06;6.50;;;3.90;;
17763;SDS011;22245;52.832;13.816;2023-03-12T20:02:28;7.60;;;3.83;;
17763;SDS011;22245;52.832;13.816;2023-03-12T20:05:50;6.33;;;4.20;;
17763;SDS011;22245;52.832;13.816;2023-03-12T20:09:13;5.90;;;3.83;;
17763;SDS011;22245;52.832;13.816;2023-03-12T20:12:35;4.80;;;3.60;;
17763;SDS011;22245;52.832;13.816;2023-03-12T20:15:57;8.20;;;4.10;;
17763;SDS011;22245;52.832;13.816;2023-03-12T20:19:19;4.77;;;3.73;;
17763;SDS011;22245;52.832;13.816;2023-03-12T20:22:41;5.53;;;3.80;;
17763;SDS011;22245;52.832;13.816;2023-03-12T20:26:03;4.63;;;3.70;;